Time;durP1;ratioP1;P1;durP2;ratioP2;P2;SDS_P1;SDS_P2;PMS_P1;PMS_P2;Temp;Humidity;BMP_temperature;BMP_pressure;BME280_temperature;BME280_humidity;BME280_pressure;Samples;Min_cycle;Max_cycle;Signal;HPM_P1;HPM_P2
2022/01/04 00:08:14;;;;;;;13.10;7.03;;;;;;;3.62;100.00;98878.41;31241727;28;20586;-82
2022/01/04 00:23:17;;;;;;;13.43;6.93;;;;;;;3.68;100.00;98882.16;31255291;28;20067;-82
2022/01/04 00:38:19;;;;;;;14.30;7.03;;;;;;;3.65;100.00;98893.69;31218703;28;20073;-83
2022/01/04 00:53:21;;;;;;;12.37;7.67;;;;;;;3.67;100.00;98896.75;31251311;28;20053;-83
2022/01/04 01:08:23;;;;;;;10.57;6.33;;;;;;;3.68;100.00;98908.25;31184286;28;20084;-82
2022/01/04 01:23:25;;;;;;;10.27;6.57;;;;;;;3.74;100.00;98898.59;31232586;28;20053;-81
2022/01/04 01:38:27;;;;;;;14.33;7.07;;;;;;;3.78;100.00;98920.03;31199680;28;20474;-82
2022/01/04 01:53:29;;;;;;;13.47;7.00;;;;;;;3.76;100.00;98923.88;31229616;28;20144;-82
2022/01/04 02:08:31;;;;;;;15.63;7.07;;;;;;;3.72;100.00;98933.13;31188341;28;20053;-81
2022/01/04 02:23:33;;;;;;;15.90;6.57;;;;;;;3.72;100.00;98950.00;31179952;28;20140;-82
2022/01/04 02:38:37;;;;;;;16.43;7.60;;;;;;;3.81;100.00;98972.91;31191902;28;20065;-82
2022/01/04 02:53:39;;;;;;;15.23;7.97;;;;;;;3.78;100.00;98993.25;31201329;28;20154;-82
2022/01/04 03:08:41;;;;;;;12.17;8.03;;;;;;;3.69;100.00;99017.91;31186380;28;20495;-82
2022/01/04 03:23:43;;;;;;;17.20;8.03;;;;;;;3.60;100.00;98998.81;31168190;28;20059;-82
2022/01/04 03:38:44;;;;;;;12.50;7.57;;;;;;;3.57;100.00;99028.34;31168836;28;20133;-82
2022/01/04 03:53:46;;;;;;;13.43;6.57;;;;;;;3.51;100.00;99054.88;31170874;28;20053;-83
2022/01/04 04:08:49;;;;;;;10.20;5.60;;;;;;;3.61;100.00;99064.72;31191569;28;20056;-82
2022/01/04 04:23:51;;;;;;;9.37;4.63;;;;;;;3.71;100.00;99088.06;31194244;28;20570;-83
2022/01/04 04:38:53;;;;;;;9.53;5.90;;;;;;;3.78;100.00;99112.13;31188070;28;20133;-83
2022/01/04 04:53:55;;;;;;;11.17;5.83;;;;;;;3.75;100.00;99139.78;31201593;28;20054;-82
2022/01/04 05:08:57;;;;;;;9.70;5.87;;;;;;;3.61;100.00;99160.59;31207737;28;20144;-82
2022/01/04 05:23:58;;;;;;;10.70;5.63;;;;;;;3.56;100.00;99179.78;31219808;28;20140;-82
2022/01/04 05:39:00;;;;;;;8.77;4.70;;;;;;;3.47;100.00;99193.66;31215326;28;20053;-83
2022/01/04 05:54:02;;;;;;;10.90;5.17;;;;;;;3.53;100.00;99229.66;31193776;28;20136;-82
2022/01/04 06:09:04;;;;;;;11.37;5.17;;;;;;;3.73;100.00;99232.59;31193753;28;20061;-81
2022/01/04 06:24:06;;;;;;;8.37;5.47;;;;;;;3.87;100.00;99274.69;31197226;28;20135;-81
2022/01/04 06:39:08;;;;;;;11.33;6.00;;;;;;;4.20;100.00;99270.66;31194230;28;20058;-83
2022/01/04 06:54:11;;;;;;;10.00;5.80;;;;;;;5.54;100.00;99289.31;31172749;28;20140;-82
2022/01/04 07:09:13;;;;;;;8.90;4.70;;;;;;;7.59;97.09;99293.31;31189768;28;20486;-82
2022/01/04 07:24:15;;;;;;;8.37;4.97;;;;;;;7.11;91.07;99312.75;31190514;28;20057;-82
2022/01/04 07:39:17;;;;;;;14.60;5.93;;;;;;;5.65;98.78;99336.50;31208069;28;20053;-83
2022/01/04 07:54:19;;;;;;;12.50;5.90;;;;;;;5.13;100.00;99363.59;31273359;28;20053;-81
2022/01/04 08:10:32;;;;;;;15.17;7.40;;;;;;;5.05;100.00;99372.88;31177520;28;20049;-81
2022/01/04 08:25:34;;;;;;;15.07;8.63;;;;;;;4.78;100.00;99380.03;31175650;28;20042;-81
2022/01/04 08:40:36;;;;;;;26.03;11.03;;;;;;;5.19;100.00;99371.25;31243138;28;20388;-81
2022/01/04 08:55:38;;;;;;;22.53;10.87;;;;;;;5.38;100.00;99341.81;31281543;28;20478;-81
2022/01/04 09:10:40;;;;;;;17.00;8.73;;;;;;;5.05;100.00;99389.03;31262920;28;20042;-82
2022/01/04 09:25:42;;;;;;;17.67;8.27;;;;;;;4.84;100.00;99402.66;31229602;28;20077;-83
2022/01/04 09:40:50;;;;;;;19.60;8.07;;;;;;;4.84;100.00;99416.09;31189231;28;20069;-80
2022/01/04 09:55:54;;;;;;;14.83;6.97;;;;;;;4.43;100.00;99419.44;31202190;28;20092;-79
2022/01/04 10:11:06;;;;;;;31.53;12.30;;;;;;;4.44;100.00;99426.34;31177002;28;20486;-78
2022/01/04 10:26:08;;;;;;;14.17;6.10;;;;;;;4.74;100.00;99416.91;31185806;28;20141;-80
2022/01/04 10:41:23;;;;;;;14.77;6.83;;;;;;;4.84;100.00;99424.16;31229492;28;20471;-76
2022/01/04 10:56:31;;;;;;;17.03;7.97;;;;;;;5.31;100.00;99427.22;31194943;28;20132;-79
2022/01/04 11:11:33;;;;;;;14.93;7.27;;;;;;;5.81;100.00;99436.34;31207484;28;20048;-73
2022/01/04 11:26:39;;;;;;;13.53;6.53;;;;;;;5.89;100.00;99465.94;31171463;28;20064;-72
2022/01/04 11:41:42;;;;;;;11.23;5.77;;;;;;;5.75;100.00;99478.34;31183888;28;20484;-73
2022/01/04 11:56:56;;;;;;;8.90;4.90;;;;;;;5.59;100.00;99496.97;31180983;28;20061;-78
2022/01/04 12:11:58;;;;;;;11.23;6.53;;;;;;;5.31;100.00;99516.03;31207408;28;20150;-74
2022/01/04 12:27:08;;;;;;;8.70;5.40;;;;;;;5.66;100.00;99534.63;31213201;28;20089;-74
2022/01/04 12:42:15;;;;;;;8.60;4.97;;;;;;;5.55;100.00;99552.78;31204778;28;20054;-76
2022/01/04 12:57:20;;;;;;;9.30;5.07;;;;;;;5.46;100.00;99563.22;31205024;28;20049;-76
2022/01/04 13:12:28;;;;;;;11.43;4.67;;;;;;;5.17;100.00;99568.06;31192687;28;20037;-75
2022/01/04 13:27:36;;;;;;;8.17;4.83;;;;;;;4.99;100.00;99600.41;31195614;28;20411;-78
2022/01/04 13:42:43;;;;;;;7.87;4.47;;;;;;;4.88;100.00;99620.47;31182500;28;20057;-73
2022/01/04 13:57:45;;;;;;;12.77;5.93;;;;;;;4.74;100.00;99640.09;31191453;28;20101;-74
2022/01/04 14:12:47;;;;;;;9.70;4.63;;;;;;;4.74;100.00;99656.22;31205000;28;20058;-74
2022/01/04 14:27:51;;;;;;;11.10;5.93;;;;;;;4.78;100.00;99681.97;31184788;28;20458;-73
2022/01/04 14:42:53;;;;;;;10.57;5.57;;;;;;;4.72;100.00;99696.22;31207866;28;20049;-72
2022/01/04 14:57:55;;;;;;;10.23;5.77;;;;;;;4.77;100.00;99706.56;31196438;28;20072;-72
2022/01/04 15:12:57;;;;;;;10.90;5.33;;;;;;;4.65;100.00;99736.56;31171194;28;20042;-71
2022/01/04 15:28:00;;;;;;;13.60;7.07;;;;;;;4.64;100.00;99746.53;31165896;28;20054;-73
2022/01/04 15:43:02;;;;;;;16.50;7.17;;;;;;;4.58;100.00;99752.69;31167322;28;20055;-76
2022/01/04 15:58:04;;;;;;;19.40;7.97;;;;;;;4.52;100.00;99791.84;31209494;28;20061;-73
2022/01/04 16:13:07;;;;;;;22.27;8.83;;;;;;;4.19;100.00;99812.59;31198799;28;20395;-75
2022/01/04 16:28:09;;;;;;;22.90;10.07;;;;;;;4.23;100.00;99791.88;31176066;28;20042;-73
2022/01/04 16:43:10;;;;;;;26.23;11.60;;;;;;;4.31;100.00;99798.00;31193569;28;20132;-74
2022/01/04 16:58:12;;;;;;;24.37;11.07;;;;;;;4.38;100.00;99787.25;31210454;28;20064;-74
2022/01/04 17:28:45;;;;;;;23.90;11.13;;;;;;;4.08;100.00;99819.84;31165209;28;20053;-74
2022/01/04 17:43:47;;;;;;;21.73;11.07;;;;;;;3.81;100.00;99808.63;31154353;28;20400;-76
2022/01/04 17:58:51;;;;;;;22.37;10.80;;;;;;;3.88;100.00;99803.31;31194836;28;20656;-74
2022/01/04 18:13:53;;;;;;;19.43;9.93;;;;;;;3.67;100.00;99809.38;31187327;28;20056;-75
2022/01/04 18:28:55;;;;;;;14.80;7.93;;;;;;;3.58;100.00;99792.84;31202635;28;20517;-76
2022/01/04 18:43:58;;;;;;;13.50;7.47;;;;;;;3.64;100.00;99802.06;31167380;28;20699;-74
2022/01/04 18:59:02;;;;;;;14.20;8.03;;;;;;;3.58;100.00;99795.53;31199434;28;20053;-82
2022/01/04 19:14:05;;;;;;;18.60;7.47;;;;;;;3.60;100.00;99792.47;31207205;28;20108;-79
2022/01/04 19:29:07;;;;;;;17.83;7.67;;;;;;;3.50;100.00;99798.59;31162433;28;20490;-73
2022/01/04 19:44:13;;;;;;;14.63;7.53;;;;;;;3.31;100.00;99810.34;31175692;28;20053;-75
2022/01/04 19:59:16;;;;;;;17.87;8.00;;;;;;;3.21;100.00;99827.19;31189557;28;20115;-83
2022/01/04 20:14:18;;;;;;;19.50;8.80;;;;;;;3.13;100.00;99823.69;31205399;28;20739;-74
2022/01/04 20:29:22;;;;;;;19.23;10.07;;;;;;;3.04;100.00;99816.00;31233931;28;20148;-78
2022/01/04 20:44:25;;;;;;;21.93;10.30;;;;;;;3.06;100.00;99816.38;31172159;28;20067;-72
2022/01/04 20:59:27;;;;;;;25.07;9.53;;;;;;;3.18;100.00;99815.28;31194571;28;20438;-73
2022/01/04 21:14:29;;;;;;;23.87;9.00;;;;;;;3.42;100.00;99809.28;31205421;28;20056;-74
2022/01/04 21:29:31;;;;;;;17.20;6.50;;;;;;;3.60;100.00;99798.59;31208862;28;20449;-72
2022/01/04 21:44:33;;;;;;;14.77;7.33;;;;;;;3.56;100.00;99803.19;31191220;28;20053;-75
2022/01/04 21:59:35;;;;;;;30.07;13.37;;;;;;;3.35;100.00;99797.72;31207796;28;20117;-76
2022/01/04 22:14:38;;;;;;;41.67;19.90;;;;;;;3.12;100.00;99770.41;31178077;28;20056;-74
2022/01/04 22:29:40;;;;;;;18.80;8.90;;;;;;;2.92;100.00;99753.84;31196318;28;20049;-73
2022/01/04 22:44:42;;;;;;;40.30;17.57;;;;;;;2.74;100.00;99754.50;31184695;28;20377;-75
2022/01/04 22:59:44;;;;;;;15.93;6.73;;;;;;;2.44;100.00;99761.94;31185000;28;20400;-73
2022/01/04 23:14:47;;;;;;;12.17;5.37;;;;;;;2.43;100.00;99746.25;31211996;28;20503;-73
2022/01/04 23:29:49;;;;;;;13.77;5.47;;;;;;;2.43;100.00;99746.25;31182668;28;20049;-74
2022/01/04 23:44:51;;;;;;;11.23;5.03;;;;;;;2.68;100.00;99761.34;31196489;28;20050;-72
2022/01/04 23:59:52;;;;;;;8.17;4.43;;;;;;;2.38;100.00;99774.13;31189196;28;20540;-73
